createdAt,value
2023-04-24T00:00:18.634Z,36.13
2023-04-24T00:02:48.321Z,36.07
2023-04-24T00:05:18.325Z,36.08
2023-04-24T00:07:46.981Z,36.04
2023-04-24T00:10:14.869Z,36.23
2023-04-24T00:12:44.135Z,36.42
2023-04-24T00:15:12.696Z,36.26
2023-04-24T00:17:40.793Z,36.61
2023-04-24T00:20:11.333Z,36.51
2023-04-24T00:22:39.267Z,36.90
2023-04-24T00:25:08.028Z,36.41
2023-04-24T00:27:37.616Z,36.79
2023-04-24T00:30:08.506Z,36.25
2023-04-24T00:32:36.453Z,36.31
2023-04-24T00:35:04.812Z,36.50
2023-04-24T00:37:32.765Z,36.32
2023-04-24T00:40:00.753Z,35.98
2023-04-24T00:42:28.953Z,36.19
2023-04-24T00:44:58.519Z,36.09
2023-04-24T00:47:28.058Z,36.14
2023-04-24T00:49:56.834Z,36.30
2023-04-24T00:52:25.274Z,36.17
2023-04-24T00:54:53.217Z,36.20
2023-04-24T00:57:22.682Z,36.08
2023-04-24T00:59:50.751Z,36.05
2023-04-24T01:02:18.939Z,36.20
2023-04-24T01:04:48.436Z,36.34
2023-04-24T01:07:16.379Z,36.46
2023-04-24T01:09:44.641Z,36.89
2023-04-24T01:12:12.636Z,36.82
2023-04-24T01:14:40.699Z,36.66
2023-04-24T01:17:10.176Z,37.22
2023-04-24T01:19:38.166Z,37.47
2023-04-24T01:22:12.619Z,38.24
2023-04-24T01:24:40.729Z,38.31
2023-04-24T01:27:09.333Z,38.79
2023-04-24T01:29:37.425Z,38.74
2023-04-24T01:32:06.409Z,39.13
2023-04-24T01:34:34.596Z,39.32
2023-04-24T01:37:03.068Z,39.34
2023-04-24T01:39:34.355Z,39.52
2023-04-24T01:42:03.247Z,39.50
2023-04-24T01:44:31.220Z,39.71
2023-04-24T01:46:59.306Z,39.70
2023-04-24T01:49:27.243Z,39.45
2023-04-24T01:51:55.102Z,39.52
2023-04-24T01:54:23.291Z,39.51
2023-04-24T01:56:52.963Z,39.70
2023-04-24T01:59:23.672Z,40.19
2023-04-24T02:01:52.002Z,40.84
2023-04-24T02:04:20.844Z,41.02
2023-04-24T02:06:49.646Z,41.17
2023-04-24T02:09:17.667Z,41.75
2023-04-24T02:11:46.036Z,41.79
2023-04-24T02:14:15.247Z,42.03
2023-04-24T02:16:43.397Z,42.51
2023-04-24T02:19:11.523Z,42.59
2023-04-24T02:21:39.383Z,42.79
2023-04-24T02:24:10.125Z,43.13
2023-04-24T02:26:38.057Z,43.76
2023-04-24T02:29:06.177Z,43.89
2023-04-24T02:31:35.827Z,43.78
2023-04-24T02:34:03.806Z,43.98
2023-04-24T02:36:32.613Z,44.43
2023-04-24T02:39:00.574Z,45.42
2023-04-24T02:41:32.569Z,45.04
2023-04-24T02:44:00.969Z,45.68
2023-04-24T02:46:28.903Z,45.63
2023-04-24T02:48:58.362Z,45.67
2023-04-24T02:51:26.229Z,45.63
2023-04-24T02:53:54.110Z,45.70
2023-04-24T02:56:22.150Z,45.69
2023-04-24T02:58:50.096Z,45.69
2023-04-24T03:01:18.881Z,45.56
2023-04-24T03:03:47.010Z,45.24
2023-04-24T03:06:16.547Z,45.30
2023-04-24T03:08:44.405Z,45.43
2023-04-24T03:11:12.859Z,46.04
2023-04-24T03:13:40.784Z,45.09
2023-04-24T03:16:08.682Z,45.13
2023-04-24T03:18:36.591Z,45.15
2023-04-24T03:21:06.117Z,45.04
2023-04-24T03:23:35.603Z,44.63
2023-04-24T03:26:03.848Z,44.46
2023-04-24T03:28:32.805Z,44.50
2023-04-24T03:31:06.005Z,44.40
2023-04-24T03:33:37.258Z,44.43
2023-04-24T03:36:06.414Z,44.50
2023-04-24T03:38:42.425Z,44.30
2023-04-24T03:41:29.693Z,43.90
2023-04-24T03:44:05.276Z,44.10
2023-04-24T03:46:33.295Z,44.03
2023-04-24T03:49:03.324Z,44.16
2023-04-24T03:51:36.725Z,44.16
2023-04-24T03:54:19.527Z,44.10
2023-04-24T03:56:48.106Z,44.53
2023-04-24T03:59:16.306Z,44.91
2023-04-24T04:01:48.596Z,44.84
2023-04-24T04:04:18.501Z,44.79
2023-04-24T04:06:47.783Z,44.93
2023-04-24T04:09:16.035Z,44.94
2023-04-24T04:11:45.353Z,44.56
2023-04-24T04:14:13.983Z,44.98
2023-04-24T04:16:46.087Z,44.70
2023-04-24T04:19:14.606Z,44.74
2023-04-24T04:21:43.127Z,44.82
2023-04-24T04:24:23.442Z,44.46
2023-04-24T04:26:57.501Z,44.58
2023-04-24T04:29:41.336Z,44.35
2023-04-24T04:32:12.013Z,44.16
2023-04-24T04:34:40.725Z,44.01
2023-04-24T04:37:12.133Z,43.69
2023-04-24T04:40:07.146Z,43.56
2023-04-24T04:42:41.904Z,43.43
2023-04-24T04:45:12.486Z,44.75
2023-04-24T04:47:56.088Z,45.10
2023-04-24T04:50:24.297Z,44.70
2023-04-24T04:53:01.016Z,44.44
2023-04-24T04:55:33.993Z,43.86
2023-04-24T04:58:14.514Z,43.79
2023-04-24T05:00:42.833Z,43.49
2023-04-24T05:03:23.658Z,43.65
2023-04-24T05:05:59.569Z,43.46
2023-04-24T05:08:28.157Z,43.21
2023-04-24T05:10:57.177Z,43.47
2023-04-24T05:13:39.210Z,43.10
2023-04-24T05:16:13.874Z,42.91
2023-04-24T05:18:42.448Z,43.28
2023-04-24T05:21:13.264Z,43.84
2023-04-24T05:23:43.864Z,44.13
2023-04-24T05:26:13.202Z,44.57
2023-04-24T05:28:44.140Z,44.91
2023-04-24T05:31:14.626Z,45.38
2023-04-24T05:33:42.815Z,45.47
2023-04-24T05:36:11.207Z,45.27
2023-04-24T05:38:39.086Z,45.39
2023-04-24T05:41:07.241Z,45.38
2023-04-24T05:43:35.151Z,46.21
2023-04-24T05:46:04.495Z,46.55
2023-04-24T05:48:32.688Z,46.37
2023-04-24T05:51:03.240Z,46.39
2023-04-24T05:53:31.454Z,46.45
2023-04-24T05:55:59.720Z,46.79
2023-04-24T05:58:28.086Z,47.12
2023-04-24T06:00:56.390Z,47.30
2023-04-24T06:03:25.937Z,47.10
2023-04-24T06:05:53.956Z,46.80
2023-04-24T06:08:23.577Z,46.16
2023-04-24T06:10:51.725Z,45.70
2023-04-24T06:13:21.674Z,45.26
2023-04-24T06:16:12.607Z,45.27
2023-04-24T06:18:44.586Z,45.27
2023-04-24T06:21:12.685Z,44.72
2023-04-24T06:23:40.729Z,44.17
2023-04-24T06:26:08.612Z,44.03
2023-04-24T06:28:36.493Z,43.54
2023-04-24T06:31:06.260Z,43.00
2023-04-24T06:33:34.216Z,43.10
2023-04-24T06:36:05.031Z,43.19
2023-04-24T06:38:32.933Z,42.90
2023-04-24T06:41:00.872Z,42.87
2023-04-24T06:43:28.732Z,43.04
2023-04-24T06:45:58.262Z,43.46
2023-04-24T06:48:26.780Z,43.75
2023-04-24T06:50:54.763Z,43.71
2023-04-24T06:53:24.062Z,43.79
2023-04-24T06:55:51.930Z,43.27
2023-04-24T06:58:19.942Z,43.73
2023-04-24T07:00:47.911Z,43.69
2023-04-24T07:03:16.018Z,43.14
2023-04-24T07:05:44.113Z,43.60
2023-04-24T07:08:12.766Z,43.49
2023-04-24T07:10:42.071Z,43.35
2023-04-24T07:13:10.276Z,43.51
2023-04-24T07:15:38.303Z,43.65
2023-04-24T07:18:06.412Z,43.42
2023-04-24T07:20:35.405Z,43.71
2023-04-24T07:23:03.929Z,43.68
2023-04-24T07:25:32.338Z,43.59
2023-04-24T07:28:01.927Z,43.87
2023-04-24T07:30:30.346Z,44.16
2023-04-24T07:32:58.367Z,44.13
2023-04-24T07:35:26.990Z,44.41
2023-04-24T07:37:55.142Z,44.29
2023-04-24T07:40:23.699Z,44.40
2023-04-24T07:42:51.780Z,44.34
2023-04-24T07:45:21.477Z,44.67
2023-04-24T07:47:49.463Z,44.98
2023-04-24T07:50:17.562Z,44.85
2023-04-24T07:52:45.459Z,44.95
2023-04-24T07:55:13.420Z,44.91
2023-04-24T07:57:41.343Z,44.82
2023-04-24T08:00:10.284Z,44.91
2023-04-24T08:02:42.497Z,44.90
2023-04-24T08:05:11.258Z,44.79
2023-04-24T08:07:40.490Z,44.57
2023-04-24T08:10:09.684Z,44.56
2023-04-24T08:12:37.886Z,44.44
2023-04-24T08:15:06.758Z,44.81
2023-04-24T08:17:34.735Z,44.46
2023-04-24T08:20:04.884Z,44.31
2023-04-24T08:22:33.296Z,44.16
2023-04-24T08:25:02.578Z,44.11
2023-04-24T08:27:30.506Z,43.98
2023-04-24T08:29:59.513Z,43.93
2023-04-24T08:32:28.955Z,43.53
2023-04-24T08:34:57.416Z,43.36
2023-04-24T08:37:28.148Z,43.23
2023-04-24T08:39:56.182Z,43.21
2023-04-24T08:42:24.365Z,43.25
2023-04-24T08:44:52.391Z,43.38
2023-04-24T08:47:22.675Z,43.29
2023-04-24T08:49:52.505Z,43.31
2023-04-24T08:52:21.100Z,43.19
2023-04-24T08:54:50.480Z,43.00
2023-04-24T08:57:18.883Z,43.28
2023-04-24T08:59:47.569Z,43.36
2023-04-24T09:02:16.321Z,43.12
2023-04-24T09:04:45.833Z,43.03
2023-04-24T09:07:14.703Z,42.89
2023-04-24T09:09:43.793Z,43.00
2023-04-24T09:12:13.853Z,42.80
2023-04-24T09:14:45.994Z,42.53
2023-04-24T09:17:14.390Z,42.89
2023-04-24T09:19:42.877Z,42.93
2023-04-24T09:22:12.182Z,43.03
2023-04-24T09:24:40.779Z,42.91
2023-04-24T09:27:11.249Z,43.25
2023-04-24T09:29:40.826Z,43.08
2023-04-24T09:32:30.955Z,43.14
2023-04-24T09:35:13.538Z,43.23
2023-04-24T09:37:43.400Z,42.91
2023-04-24T09:40:17.486Z,42.55
2023-04-24T09:42:47.203Z,42.62
2023-04-24T09:45:16.544Z,42.51
2023-04-24T09:47:45.062Z,42.29
2023-04-24T09:50:15.385Z,42.21
2023-04-24T09:52:45.151Z,42.25
2023-04-24T09:55:14.533Z,42.07
2023-04-24T09:57:55.713Z,41.92
2023-04-24T10:00:29.592Z,41.87
2023-04-24T10:02:59.273Z,42.22
2023-04-24T10:05:29.956Z,42.62
2023-04-24T10:08:04.279Z,42.76
2023-04-24T10:10:32.664Z,43.33
2023-04-24T10:13:01.624Z,43.65
2023-04-24T10:15:31.252Z,44.02
2023-04-24T10:18:01.003Z,44.75
2023-04-24T10:20:32.054Z,45.30
2023-04-24T10:23:01.005Z,45.83
2023-04-24T10:25:30.266Z,46.11
2023-04-24T10:28:00.631Z,46.61
2023-04-24T10:30:31.642Z,47.00
2023-04-24T10:33:01.688Z,47.29
2023-04-24T10:35:33.232Z,47.78
2023-04-24T10:38:05.184Z,47.91
2023-04-24T10:40:35.078Z,48.04
2023-04-24T10:43:07.152Z,48.11
2023-04-24T10:45:36.694Z,48.13
2023-04-24T10:48:07.386Z,47.95
2023-04-24T10:50:46.057Z,48.11
2023-04-24T10:53:19.235Z,48.26
2023-04-24T10:55:49.888Z,48.54
2023-04-24T10:58:18.847Z,48.64
2023-04-24T11:00:59.143Z,48.81
2023-04-24T11:03:29.274Z,48.83
2023-04-24T11:05:58.955Z,48.73
2023-04-24T11:08:29.426Z,48.90
2023-04-24T11:11:00.214Z,49.00
2023-04-24T11:13:50.444Z,48.92
2023-04-24T11:16:30.124Z,48.99
2023-04-24T11:19:03.892Z,49.19
2023-04-24T11:21:42.793Z,49.33
2023-04-24T11:24:31.869Z,49.16
2023-04-24T11:27:02.566Z,49.36
2023-04-24T11:30:02.113Z,49.49
2023-04-24T11:32:33.044Z,49.76
2023-04-24T11:35:03.225Z,49.78
2023-04-24T11:37:36.486Z,49.56
2023-04-24T11:40:07.108Z,49.76
2023-04-24T11:42:39.042Z,49.85
2023-04-24T11:45:11.538Z,50.01
2023-04-24T11:47:41.891Z,50.24
2023-04-24T11:50:12.082Z,50.26
2023-04-24T11:52:41.463Z,50.48
2023-04-24T11:55:11.081Z,50.46
2023-04-24T11:57:39.010Z,50.28
2023-04-24T12:00:09.263Z,50.23
2023-04-24T12:02:41.845Z,50.42
2023-04-24T12:05:12.985Z,50.54
2023-04-24T12:07:44.121Z,50.78
2023-04-24T12:10:12.365Z,50.98
2023-04-24T12:12:40.343Z,51.27
2023-04-24T12:15:10.516Z,51.35
2023-04-24T12:17:42.792Z,51.65
2023-04-24T12:20:14.599Z,51.80
2023-04-24T12:22:47.462Z,51.88
2023-04-24T12:25:16.759Z,51.83
2023-04-24T12:27:45.991Z,51.99
2023-04-24T12:30:16.136Z,51.88
2023-04-24T12:32:45.383Z,52.02
2023-04-24T12:35:14.879Z,51.98
2023-04-24T12:37:47.220Z,52.37
2023-04-24T12:40:16.415Z,52.78
2023-04-24T12:42:45.384Z,53.10
2023-04-24T12:45:14.034Z,53.13
2023-04-24T12:47:43.064Z,53.25
2023-04-24T12:50:13.251Z,53.43
2023-04-24T12:52:43.257Z,53.13
2023-04-24T12:55:13.035Z,53.08
2023-04-24T12:57:46.428Z,53.27
2023-04-24T13:00:15.754Z,53.52
2023-04-24T13:02:45.233Z,53.54
2023-04-24T13:05:14.762Z,53.68
2023-04-24T13:07:44.091Z,53.40
2023-04-24T13:10:12.388Z,53.52
2023-04-24T13:12:41.225Z,53.71
2023-04-24T13:15:09.817Z,53.99
2023-04-24T13:17:37.721Z,54.26
2023-04-24T13:20:06.872Z,54.17
2023-04-24T13:22:35.169Z,54.41
2023-04-24T13:25:06.883Z,54.49
2023-04-24T13:27:35.054Z,55.03
2023-04-24T13:30:03.037Z,55.45
2023-04-24T13:32:31.614Z,55.58
2023-04-24T13:34:59.597Z,55.99
2023-04-24T13:37:27.527Z,56.39
2023-04-24T13:39:55.584Z,56.22
2023-04-24T13:42:24.855Z,57.78
2023-04-24T13:44:53.041Z,59.62
2023-04-24T13:47:20.901Z,60.22
2023-04-24T13:49:48.761Z,61.03
2023-04-24T13:52:16.775Z,61.96
2023-04-24T13:54:44.630Z,62.46
2023-04-24T13:57:12.829Z,62.75
2023-04-24T13:59:42.088Z,63.68
2023-04-24T14:02:10.168Z,64.85
2023-04-24T14:04:38.450Z,65.26
2023-04-24T14:07:06.581Z,65.53
2023-04-24T14:09:34.399Z,66.68
2023-04-24T14:12:02.880Z,67.13
2023-04-24T14:14:31.424Z,68.24
2023-04-24T14:17:00.739Z,68.94
2023-04-24T14:19:28.674Z,69.18
2023-04-24T14:21:57.740Z,70.03
2023-04-24T14:24:25.641Z,69.63
2023-04-24T14:26:53.793Z,70.05
2023-04-24T14:29:21.859Z,70.71
2023-04-24T14:31:49.906Z,71.87
2023-04-24T14:34:19.259Z,71.14
2023-04-24T14:36:47.241Z,71.10
2023-04-24T14:39:15.124Z,71.31
2023-04-24T14:41:43.041Z,71.37
2023-04-24T14:44:11.548Z,71.34
2023-04-24T14:46:39.623Z,71.86
2023-04-24T14:49:10.563Z,71.12
2023-04-24T14:51:40.076Z,71.67
2023-04-24T14:54:08.008Z,71.22
2023-04-24T14:56:35.950Z,71.26
2023-04-24T14:59:05.023Z,70.83
2023-04-24T15:01:32.850Z,70.99
2023-04-24T15:04:00.860Z,70.96
2023-04-24T15:06:28.986Z,71.73
2023-04-24T15:08:58.278Z,71.45
2023-04-24T15:11:26.188Z,71.76
2023-04-24T15:13:54.124Z,71.22
2023-04-24T15:16:22.249Z,71.22
2023-04-24T15:18:50.177Z,71.23
2023-04-24T15:21:18.105Z,71.21
2023-04-24T15:23:46.182Z,71.38
2023-04-24T15:26:15.650Z,71.72
2023-04-24T15:28:43.861Z,71.95
2023-04-24T15:31:11.825Z,72.33
2023-04-24T15:33:39.741Z,72.56
2023-04-24T15:36:08.001Z,72.88
2023-04-24T15:38:35.968Z,72.88
2023-04-24T15:41:03.861Z,72.46
2023-04-24T15:43:35.154Z,72.97
2023-04-24T15:46:03.551Z,73.19
2023-04-24T15:48:31.655Z,73.04
2023-04-24T15:50:59.760Z,73.01
2023-04-24T15:53:28.363Z,72.83
2023-04-24T15:55:57.039Z,72.63
2023-04-24T15:58:25.017Z,72.93
2023-04-24T16:00:54.788Z,72.92
2023-04-24T16:03:23.259Z,73.18
2023-04-24T16:05:51.605Z,73.39
2023-04-24T16:08:19.479Z,73.21
2023-04-24T16:10:47.344Z,73.12
2023-04-24T16:13:15.698Z,73.38
2023-04-24T16:15:43.725Z,73.50
2023-04-24T16:18:13.095Z,73.87
2023-04-24T16:20:41.279Z,73.47
2023-04-24T16:23:09.179Z,73.76
2023-04-24T16:25:37.175Z,74.02
2023-04-24T16:28:05.220Z,73.77
2023-04-24T16:30:33.314Z,74.30
2023-04-24T16:33:05.530Z,74.35
2023-04-24T16:35:34.952Z,74.76
2023-04-24T16:38:03.334Z,74.76
2023-04-24T16:40:31.465Z,74.56
2023-04-24T16:42:59.364Z,74.70
2023-04-24T16:45:27.439Z,75.10
2023-04-24T16:47:55.471Z,74.36
2023-04-24T16:50:23.393Z,74.50
2023-04-24T16:52:52.613Z,74.64
2023-04-24T16:55:20.508Z,74.20
2023-04-24T16:57:48.464Z,74.30
2023-04-24T17:00:17.317Z,74.76
2023-04-24T17:02:48.513Z,74.28
2023-04-24T17:05:16.643Z,74.21
2023-04-24T17:07:44.510Z,74.30
2023-04-24T17:10:13.740Z,74.44
2023-04-24T17:12:41.582Z,74.42
2023-04-24T17:15:10.048Z,74.45
2023-04-24T17:17:37.985Z,74.65
2023-04-24T17:20:18.629Z,75.07
2023-04-24T17:22:50.511Z,75.17
2023-04-24T17:25:20.087Z,75.30
2023-04-24T17:27:48.180Z,74.96
2023-04-24T17:30:17.575Z,74.91
2023-04-24T17:32:45.683Z,74.83
2023-04-24T17:35:13.719Z,75.08
2023-04-24T17:37:41.677Z,74.84
2023-04-24T17:40:10.625Z,75.12
2023-04-24T17:42:41.503Z,74.85
2023-04-24T17:45:10.904Z,75.10
2023-04-24T17:47:38.876Z,75.03
2023-04-24T17:50:07.796Z,75.36
2023-04-24T17:52:36.518Z,75.22
2023-04-24T17:55:04.837Z,74.97
2023-04-24T17:57:32.765Z,75.25
2023-04-24T18:00:02.050Z,75.28
2023-04-24T18:02:34.203Z,75.66
2023-04-24T18:05:02.255Z,75.63
2023-04-24T18:07:30.460Z,75.40
2023-04-24T18:09:58.711Z,75.83
2023-04-24T18:12:27.297Z,75.87
2023-04-24T18:15:06.719Z,75.60
2023-04-24T18:17:45.070Z,76.29
2023-04-24T18:20:14.429Z,76.11
2023-04-24T18:22:43.180Z,76.29
2023-04-24T18:25:11.794Z,75.74
2023-04-24T18:27:40.571Z,76.28
2023-04-24T18:30:14.193Z,77.14
2023-04-24T18:32:44.264Z,77.74
2023-04-24T18:35:12.287Z,78.16
2023-04-24T18:37:40.664Z,78.15
2023-04-24T18:40:10.071Z,78.19
2023-04-24T18:42:38.078Z,78.79
2023-04-24T18:45:07.277Z,79.27
2023-04-24T18:47:35.890Z,79.40
2023-04-24T18:50:05.556Z,79.22
2023-04-24T18:52:33.674Z,78.93
2023-04-24T18:55:03.512Z,78.72
2023-04-24T18:57:31.461Z,77.87
2023-04-24T18:59:59.579Z,77.85
2023-04-24T19:02:27.946Z,77.38
2023-04-24T19:04:56.072Z,77.82
2023-04-24T19:07:25.305Z,77.40
2023-04-24T19:09:53.301Z,77.08
2023-04-24T19:12:22.733Z,77.01
2023-04-24T19:14:51.772Z,77.59
2023-04-24T19:17:23.564Z,77.61
2023-04-24T19:19:52.206Z,77.42
2023-04-24T19:22:20.674Z,77.76
2023-04-24T19:24:49.930Z,77.51
2023-04-24T19:27:17.815Z,77.23
2023-04-24T19:29:46.041Z,77.36
2023-04-24T19:32:14.011Z,77.13
2023-04-24T19:34:41.893Z,76.87
2023-04-24T19:37:09.961Z,77.07
2023-04-24T19:39:37.869Z,77.35
2023-04-24T19:42:07.787Z,76.63
2023-04-24T19:44:36.031Z,76.32
2023-04-24T19:47:04.233Z,76.08
2023-04-24T19:49:32.297Z,75.55
2023-04-24T19:52:00.233Z,75.18
2023-04-24T19:54:28.808Z,74.27
2023-04-24T19:56:57.003Z,73.98
2023-04-24T19:59:26.481Z,74.39
2023-04-24T20:01:55.041Z,73.72
2023-04-24T20:04:24.074Z,73.72
2023-04-24T20:06:52.060Z,73.32
2023-04-24T20:09:19.908Z,73.39
2023-04-24T20:11:51.017Z,73.44
2023-04-24T20:14:18.990Z,73.15
2023-04-24T20:16:48.199Z,73.09
2023-04-24T20:19:16.106Z,72.96
2023-04-24T20:21:44.180Z,72.70
2023-04-24T20:24:12.223Z,72.46
2023-04-24T20:26:40.564Z,72.57
2023-04-24T20:29:08.802Z,71.34
2023-04-24T20:31:36.855Z,71.33
2023-04-24T20:34:06.624Z,71.60
2023-04-24T20:36:34.712Z,72.44
2023-04-24T20:39:04.904Z,72.47
2023-04-24T20:41:33.369Z,72.28
2023-04-24T20:44:01.747Z,71.77
2023-04-24T20:46:29.828Z,71.48
2023-04-24T20:48:57.809Z,71.47
2023-04-24T20:51:28.240Z,71.67
2023-04-24T20:53:56.146Z,71.15
2023-04-24T20:56:24.740Z,71.54
2023-04-24T20:58:55.342Z,71.98
2023-04-24T21:01:24.860Z,71.96
2023-04-24T21:03:53.365Z,71.82
2023-04-24T21:06:21.839Z,72.10
2023-04-24T21:08:51.205Z,72.10
2023-04-24T21:11:19.064Z,71.80
2023-04-24T21:13:47.057Z,71.99
2023-04-24T21:16:15.338Z,72.66
2023-04-24T21:18:43.273Z,72.64
2023-04-24T21:21:11.347Z,73.34
2023-04-24T21:23:39.236Z,73.21
2023-04-24T21:26:08.686Z,73.19
2023-04-24T21:28:37.418Z,73.74
2023-04-24T21:31:05.342Z,73.26
2023-04-24T21:33:33.319Z,73.41
2023-04-24T21:36:01.246Z,72.76
2023-04-24T21:38:29.175Z,72.43
2023-04-24T21:40:57.266Z,72.14
2023-04-24T21:43:37.176Z,72.15
2023-04-24T21:46:11.773Z,71.91
2023-04-24T21:48:39.687Z,72.14
2023-04-24T21:51:07.561Z,71.76
2023-04-24T21:53:35.471Z,71.14
2023-04-24T21:56:03.459Z,70.52
2023-04-24T21:58:32.907Z,71.02
2023-04-24T22:01:00.885Z,70.00
2023-04-24T22:03:29.753Z,70.48
2023-04-24T22:05:57.814Z,70.62
2023-04-24T22:08:30.159Z,70.12
2023-04-24T22:10:58.112Z,70.00
2023-04-24T22:13:25.971Z,69.02
2023-04-24T22:15:56.233Z,68.64
2023-04-24T22:18:33.404Z,68.78
2023-04-24T22:21:05.359Z,68.17
2023-04-24T22:23:33.437Z,68.17
2023-04-24T22:26:01.328Z,68.04
2023-04-24T22:28:29.175Z,67.58
2023-04-24T22:30:58.541Z,67.69
2023-04-24T22:33:26.566Z,67.38
2023-04-24T22:35:54.654Z,67.52
2023-04-24T22:38:22.550Z,67.86
2023-04-24T22:40:50.829Z,68.13
2023-04-24T22:43:18.794Z,68.52
2023-04-24T22:45:46.630Z,68.74
2023-04-24T22:48:16.371Z,68.94
2023-04-24T22:50:44.204Z,69.29
2023-04-24T22:53:12.110Z,69.58
2023-04-24T22:55:40.118Z,70.02
2023-04-24T22:58:08.298Z,70.04
2023-04-24T23:00:36.311Z,70.61
2023-04-24T23:03:04.602Z,70.69
2023-04-24T23:05:33.955Z,70.60
2023-04-24T23:08:01.820Z,70.55
2023-04-24T23:10:29.901Z,70.40
2023-04-24T23:12:57.779Z,70.02
2023-04-24T23:15:25.784Z,69.89
2023-04-24T23:17:53.825Z,70.03
2023-04-24T23:20:23.103Z,69.72
2023-04-24T23:22:52.454Z,69.59
2023-04-24T23:25:20.406Z,69.80
2023-04-24T23:27:48.229Z,69.85
2023-04-24T23:30:16.116Z,70.06
2023-04-24T23:32:44.790Z,70.13
2023-04-24T23:35:12.701Z,70.74
2023-04-24T23:37:40.598Z,71.27
2023-04-24T23:40:11.044Z,70.90
2023-04-24T23:42:39.058Z,71.06
2023-04-24T23:45:10.584Z,71.32
2023-04-24T23:47:38.546Z,71.00
2023-04-24T23:50:07.328Z,70.95
2023-04-24T23:52:36.401Z,70.89
2023-04-24T23:55:04.934Z,70.93
2023-04-24T23:57:34.167Z,70.07
